Terminal Aerodrome Forecast
Issued by NWS

Home | Current Version | Previous Version | Text Only | Print | Product List | Glossary On
Versions: 1 2 3 4 5 6 7 8 9 10 11 12 13 14 15 16 17 18 19
399
FTPA31 PHFO 262321
TAFHTO
TAF
PHTO 262321Z 2700/2724 04011KT P6SM VCSH SCT025 BKN040
     FM270600 27005KT P6SM -SHRA BKN025 OVC040
     FM272200 02011KT P6SM VCSH SCT030 BKN045=

USA.gov is the U.S. government's official web portal to all federal, state and local government web resources and services.